sensor_id;sensor_type;location;lat;lon;timestamp;temperature;humidity
10788;DHT22;5446;50.826;4.380;2023-08-06T00:02:09;15.20;99.90
10788;DHT22;5446;50.826;4.380;2023-08-06T00:04:35;15.20;99.90
10788;DHT22;5446;50.826;4.380;2023-08-06T00:07:00;15.20;99.90
10788;DHT22;5446;50.826;4.380;2023-08-06T00:09:26;15.20;99.90
10788;DHT22;5446;50.826;4.380;2023-08-06T00:11:52;15.20;99.90
10788;DHT22;5446;50.826;4.380;2023-08-06T00:14:17;15.20;99.90
10788;DHT22;5446;50.826;4.380;2023-08-06T00:16:44;15.20;99.90
10788;DHT22;5446;50.826;4.380;2023-08-06T00:19:10;15.20;99.90
10788;DHT22;5446;50.826;4.380;2023-08-06T00:21:36;15.20;99.90
10788;DHT22;5446;50.826;4.380;2023-08-06T00:24:02;15.20;99.90
10788;DHT22;5446;50.826;4.380;2023-08-06T00:26:28;15.20;99.90
10788;DHT22;5446;50.826;4.380;2023-08-06T00:28:53;15.20;99.90
10788;DHT22;5446;50.826;4.380;2023-08-06T00:31:19;15.20;99.90
10788;DHT22;5446;50.826;4.380;2023-08-06T00:33:46;15.20;99.90
10788;DHT22;5446;50.826;4.380;2023-08-06T00:36:12;15.20;99.90
10788;DHT22;5446;50.826;4.380;2023-08-06T00:38:37;15.20;99.90
10788;DHT22;5446;50.826;4.380;2023-08-06T00:41:03;15.20;99.90
10788;DHT22;5446;50.826;4.380;2023-08-06T00:43:29;15.20;99.90
10788;DHT22;5446;50.826;4.380;2023-08-06T00:45:55;15.20;99.90
10788;DHT22;5446;50.826;4.380;2023-08-06T00:48:21;15.20;99.90
10788;DHT22;5446;50.826;4.380;2023-08-06T00:50:47;15.20;99.90
10788;DHT22;5446;50.826;4.380;2023-08-06T00:53:13;15.20;99.90
10788;DHT22;5446;50.826;4.380;2023-08-06T00:55:40;15.30;99.90
10788;DHT22;5446;50.826;4.380;2023-08-06T00:58:05;15.30;99.90
10788;DHT22;5446;50.826;4.380;2023-08-06T01:00:31;15.20;99.90
10788;DHT22;5446;50.826;4.380;2023-08-06T01:02:57;15.20;99.90
10788;DHT22;5446;50.826;4.380;2023-08-06T01:05:23;15.30;99.90
10788;DHT22;5446;50.826;4.380;2023-08-06T01:13:51;15.20;99.90
10788;DHT22;5446;50.826;4.380;2023-08-06T01:16:20;15.30;99.90
10788;DHT22;5446;50.826;4.380;2023-08-06T01:18:49;15.30;99.90
10788;DHT22;5446;50.826;4.380;2023-08-06T01:21:18;15.30;99.90
10788;DHT22;5446;50.826;4.380;2023-08-06T01:23:45;15.20;99.90
10788;DHT22;5446;50.826;4.380;2023-08-06T01:31:43;15.20;99.90
10788;DHT22;5446;50.826;4.380;2023-08-06T01:34:16;15.20;99.90
10788;DHT22;5446;50.826;4.380;2023-08-06T01:36:42;15.20;99.90
10788;DHT22;5446;50.826;4.380;2023-08-06T01:39:09;15.20;99.90
10788;DHT22;5446;50.826;4.380;2023-08-06T01:41:34;15.20;99.90
10788;DHT22;5446;50.826;4.380;2023-08-06T01:44:00;15.20;99.90
10788;DHT22;5446;50.826;4.380;2023-08-06T01:46:26;15.20;99.90
10788;DHT22;5446;50.826;4.380;2023-08-06T01:48:52;15.20;99.90
10788;DHT22;5446;50.826;4.380;2023-08-06T01:51:17;15.20;99.90
10788;DHT22;5446;50.826;4.380;2023-08-06T01:53:43;15.20;99.90
10788;DHT22;5446;50.826;4.380;2023-08-06T01:56:09;15.20;99.90
10788;DHT22;5446;50.826;4.380;2023-08-06T01:58:35;15.20;99.90
10788;DHT22;5446;50.826;4.380;2023-08-06T02:01:02;15.20;99.90
10788;DHT22;5446;50.826;4.380;2023-08-06T02:03:27;15.20;99.90
10788;DHT22;5446;50.826;4.380;2023-08-06T02:05:53;15.20;99.90
10788;DHT22;5446;50.826;4.380;2023-08-06T02:08:19;15.20;99.90
10788;DHT22;5446;50.826;4.380;2023-08-06T02:10:45;15.10;99.90
10788;DHT22;5446;50.826;4.380;2023-08-06T02:13:11;15.10;99.90
10788;DHT22;5446;50.826;4.380;2023-08-06T02:15:45;15.00;99.90
10788;DHT22;5446;50.826;4.380;2023-08-06T02:18:13;15.00;99.90
10788;DHT22;5446;50.826;4.380;2023-08-06T02:20:40;15.00;99.90
10788;DHT22;5446;50.826;4.380;2023-08-06T02:23:06;15.00;99.90
10788;DHT22;5446;50.826;4.380;2023-08-06T02:25:32;14.90;99.90
10788;DHT22;5446;50.826;4.380;2023-08-06T02:27:57;14.90;99.90
10788;DHT22;5446;50.826;4.380;2023-08-06T02:30:23;14.90;99.90
10788;DHT22;5446;50.826;4.380;2023-08-06T02:32:49;14.90;99.90
10788;DHT22;5446;50.826;4.380;2023-08-06T02:35:15;14.90;99.90
10788;DHT22;5446;50.826;4.380;2023-08-06T02:37:40;14.90;99.90
10788;DHT22;5446;50.826;4.380;2023-08-06T02:40:07;14.80;99.90
10788;DHT22;5446;50.826;4.380;2023-08-06T02:42:32;14.80;99.90
10788;DHT22;5446;50.826;4.380;2023-08-06T02:44:58;14.80;99.90
10788;DHT22;5446;50.826;4.380;2023-08-06T02:47:24;14.80;99.90
10788;DHT22;5446;50.826;4.380;2023-08-06T02:49:50;14.80;99.90
10788;DHT22;5446;50.826;4.380;2023-08-06T02:52:15;14.70;99.90
10788;DHT22;5446;50.826;4.380;2023-08-06T02:54:42;14.80;99.90
10788;DHT22;5446;50.826;4.380;2023-08-06T02:57:07;14.80;99.90
10788;DHT22;5446;50.826;4.380;2023-08-06T02:59:33;14.80;99.90
10788;DHT22;5446;50.826;4.380;2023-08-06T03:01:59;14.70;99.90
10788;DHT22;5446;50.826;4.380;2023-08-06T03:04:26;14.80;99.90
10788;DHT22;5446;50.826;4.380;2023-08-06T03:06:51;14.80;99.90
10788;DHT22;5446;50.826;4.380;2023-08-06T03:09:18;14.70;99.90
10788;DHT22;5446;50.826;4.380;2023-08-06T03:11:45;14.80;99.90
10788;DHT22;5446;50.826;4.380;2023-08-06T03:14:10;14.80;99.90
10788;DHT22;5446;50.826;4.380;2023-08-06T03:16:36;14.80;99.90
10788;DHT22;5446;50.826;4.380;2023-08-06T03:19:02;14.70;99.90
10788;DHT22;5446;50.826;4.380;2023-08-06T03:21:28;14.80;99.90
10788;DHT22;5446;50.826;4.380;2023-08-06T03:23:53;14.80;99.90
10788;DHT22;5446;50.826;4.380;2023-08-06T03:26:19;14.80;99.90
10788;DHT22;5446;50.826;4.380;2023-08-06T03:28:45;14.80;99.90
10788;DHT22;5446;50.826;4.380;2023-08-06T03:31:11;14.80;99.90
10788;DHT22;5446;50.826;4.380;2023-08-06T03:33:36;14.80;99.90
10788;DHT22;5446;50.826;4.380;2023-08-06T03:36:02;14.90;99.90
10788;DHT22;5446;50.826;4.380;2023-08-06T03:38:34;14.90;99.90
10788;DHT22;5446;50.826;4.380;2023-08-06T03:41:00;14.90;99.90
10788;DHT22;5446;50.826;4.380;2023-08-06T03:43:26;14.90;99.90
10788;DHT22;5446;50.826;4.380;2023-08-06T03:45:51;14.90;99.90
10788;DHT22;5446;50.826;4.380;2023-08-06T03:48:17;15.00;99.90
10788;DHT22;5446;50.826;4.380;2023-08-06T03:50:43;15.00;99.90
10788;DHT22;5446;50.826;4.380;2023-08-06T03:53:08;15.00;99.90
10788;DHT22;5446;50.826;4.380;2023-08-06T03:55:34;15.00;99.90
10788;DHT22;5446;50.826;4.380;2023-08-06T03:58:00;14.90;99.90
10788;DHT22;5446;50.826;4.380;2023-08-06T04:00:25;14.90;99.90
10788;DHT22;5446;50.826;4.380;2023-08-06T04:02:51;14.90;99.90
10788;DHT22;5446;50.826;4.380;2023-08-06T04:05:17;14.60;99.90
10788;DHT22;5446;50.826;4.380;2023-08-06T04:07:43;14.40;99.90
10788;DHT22;5446;50.826;4.380;2023-08-06T04:10:08;14.40;99.90
10788;DHT22;5446;50.826;4.380;2023-08-06T04:12:34;14.30;99.90
10788;DHT22;5446;50.826;4.380;2023-08-06T04:15:04;14.20;99.90
10788;DHT22;5446;50.826;4.380;2023-08-06T04:17:29;14.10;99.90
10788;DHT22;5446;50.826;4.380;2023-08-06T04:19:55;14.10;99.90
10788;DHT22;5446;50.826;4.380;2023-08-06T04:22:24;14.20;99.90
10788;DHT22;5446;50.826;4.380;2023-08-06T04:24:50;14.20;99.90
10788;DHT22;5446;50.826;4.380;2023-08-06T04:27:16;14.10;99.90
10788;DHT22;5446;50.826;4.380;2023-08-06T04:29:42;14.10;99.90
10788;DHT22;5446;50.826;4.380;2023-08-06T04:32:09;14.20;99.90
10788;DHT22;5446;50.826;4.380;2023-08-06T04:34:36;14.10;99.90
10788;DHT22;5446;50.826;4.380;2023-08-06T04:37:02;14.10;99.90
10788;DHT22;5446;50.826;4.380;2023-08-06T04:39:28;14.10;99.90
10788;DHT22;5446;50.826;4.380;2023-08-06T04:41:58;14.20;99.90
10788;DHT22;5446;50.826;4.380;2023-08-06T04:44:24;14.20;99.90
10788;DHT22;5446;50.826;4.380;2023-08-06T04:46:50;14.10;99.90
10788;DHT22;5446;50.826;4.380;2023-08-06T04:49:16;14.10;99.90
10788;DHT22;5446;50.826;4.380;2023-08-06T04:51:41;14.00;99.90
10788;DHT22;5446;50.826;4.380;2023-08-06T04:54:07;14.00;99.90
10788;DHT22;5446;50.826;4.380;2023-08-06T04:56:33;13.90;99.90
10788;DHT22;5446;50.826;4.380;2023-08-06T04:58:59;13.90;99.90
10788;DHT22;5446;50.826;4.380;2023-08-06T05:01:25;13.80;99.90
10788;DHT22;5446;50.826;4.380;2023-08-06T05:03:51;13.80;99.90
10788;DHT22;5446;50.826;4.380;2023-08-06T05:06:16;13.80;99.90
10788;DHT22;5446;50.826;4.380;2023-08-06T05:08:42;13.80;99.90
10788;DHT22;5446;50.826;4.380;2023-08-06T05:11:08;13.80;99.90
10788;DHT22;5446;50.826;4.380;2023-08-06T05:13:34;13.90;99.90
10788;DHT22;5446;50.826;4.380;2023-08-06T05:16:00;13.90;99.90
10788;DHT22;5446;50.826;4.380;2023-08-06T05:18:26;13.90;99.90
10788;DHT22;5446;50.826;4.380;2023-08-06T05:20:52;13.90;99.90
10788;DHT22;5446;50.826;4.380;2023-08-06T05:23:17;13.90;99.90
10788;DHT22;5446;50.826;4.380;2023-08-06T05:25:43;13.90;99.90
10788;DHT22;5446;50.826;4.380;2023-08-06T05:28:09;14.00;99.90
10788;DHT22;5446;50.826;4.380;2023-08-06T05:30:39;13.90;99.90
10788;DHT22;5446;50.826;4.380;2023-08-06T05:33:05;14.00;99.90
10788;DHT22;5446;50.826;4.380;2023-08-06T05:35:30;14.00;99.90
10788;DHT22;5446;50.826;4.380;2023-08-06T05:37:56;14.00;99.90
10788;DHT22;5446;50.826;4.380;2023-08-06T05:40:22;14.00;99.90
10788;DHT22;5446;50.826;4.380;2023-08-06T05:42:47;14.00;99.90
10788;DHT22;5446;50.826;4.380;2023-08-06T05:45:14;14.00;99.90
10788;DHT22;5446;50.826;4.380;2023-08-06T05:47:40;14.00;99.90
10788;DHT22;5446;50.826;4.380;2023-08-06T05:50:06;14.00;99.90
10788;DHT22;5446;50.826;4.380;2023-08-06T05:52:32;14.00;99.90
10788;DHT22;5446;50.826;4.380;2023-08-06T05:54:58;14.10;99.90
10788;DHT22;5446;50.826;4.380;2023-08-06T05:57:23;14.10;99.90
10788;DHT22;5446;50.826;4.380;2023-08-06T05:59:49;14.10;99.90
10788;DHT22;5446;50.826;4.380;2023-08-06T06:02:15;14.10;99.90
10788;DHT22;5446;50.826;4.380;2023-08-06T06:04:41;14.10;99.90
10788;DHT22;5446;50.826;4.380;2023-08-06T06:07:07;14.10;99.90
10788;DHT22;5446;50.826;4.380;2023-08-06T06:09:33;14.20;99.90
10788;DHT22;5446;50.826;4.380;2023-08-06T06:11:58;14.20;99.90
10788;DHT22;5446;50.826;4.380;2023-08-06T06:14:24;14.20;99.90
10788;DHT22;5446;50.826;4.380;2023-08-06T06:16:50;14.20;99.90
10788;DHT22;5446;50.826;4.380;2023-08-06T06:19:15;14.30;99.90
10788;DHT22;5446;50.826;4.380;2023-08-06T06:21:41;14.30;99.90
10788;DHT22;5446;50.826;4.380;2023-08-06T06:24:07;14.30;99.90
10788;DHT22;5446;50.826;4.380;2023-08-06T06:26:33;14.40;99.90
10788;DHT22;5446;50.826;4.380;2023-08-06T06:28:59;14.40;99.90
10788;DHT22;5446;50.826;4.380;2023-08-06T06:31:25;14.30;99.90
10788;DHT22;5446;50.826;4.380;2023-08-06T06:33:51;14.40;99.90
10788;DHT22;5446;50.826;4.380;2023-08-06T06:36:18;14.40;99.90
10788;DHT22;5446;50.826;4.380;2023-08-06T06:38:44;14.40;99.90
10788;DHT22;5446;50.826;4.380;2023-08-06T06:41:10;14.40;99.90
10788;DHT22;5446;50.826;4.380;2023-08-06T06:43:36;14.40;99.90
10788;DHT22;5446;50.826;4.380;2023-08-06T06:46:03;14.30;99.90
10788;DHT22;5446;50.826;4.380;2023-08-06T06:48:31;14.30;99.90
10788;DHT22;5446;50.826;4.380;2023-08-06T06:50:57;14.30;99.90
10788;DHT22;5446;50.826;4.380;2023-08-06T06:53:23;14.30;99.90
10788;DHT22;5446;50.826;4.380;2023-08-06T06:56:03;14.30;99.90
10788;DHT22;5446;50.826;4.380;2023-08-06T06:58:29;14.30;99.90
10788;DHT22;5446;50.826;4.380;2023-08-06T07:00:55;14.30;99.90
10788;DHT22;5446;50.826;4.380;2023-08-06T07:03:21;14.30;99.90
10788;DHT22;5446;50.826;4.380;2023-08-06T07:05:47;14.30;99.90
10788;DHT22;5446;50.826;4.380;2023-08-06T07:08:12;14.20;99.90
10788;DHT22;5446;50.826;4.380;2023-08-06T07:10:40;14.10;99.90
10788;DHT22;5446;50.826;4.380;2023-08-06T07:13:06;14.10;99.90
10788;DHT22;5446;50.826;4.380;2023-08-06T07:15:31;14.10;99.90
10788;DHT22;5446;50.826;4.380;2023-08-06T07:17:57;14.10;99.90
10788;DHT22;5446;50.826;4.380;2023-08-06T07:20:23;14.20;99.90
10788;DHT22;5446;50.826;4.380;2023-08-06T07:22:49;14.30;99.90
10788;DHT22;5446;50.826;4.380;2023-08-06T07:25:16;14.30;99.90
10788;DHT22;5446;50.826;4.380;2023-08-06T07:27:42;14.30;99.90
10788;DHT22;5446;50.826;4.380;2023-08-06T07:30:08;14.40;99.90
10788;DHT22;5446;50.826;4.380;2023-08-06T07:32:34;14.40;99.90
10788;DHT22;5446;50.826;4.380;2023-08-06T07:34:59;14.40;99.90
10788;DHT22;5446;50.826;4.380;2023-08-06T07:37:29;14.30;99.90
10788;DHT22;5446;50.826;4.380;2023-08-06T07:39:56;14.50;99.90
10788;DHT22;5446;50.826;4.380;2023-08-06T07:42:22;14.60;99.90
10788;DHT22;5446;50.826;4.380;2023-08-06T07:44:55;14.60;99.90
10788;DHT22;5446;50.826;4.380;2023-08-06T07:47:21;14.80;99.90
10788;DHT22;5446;50.826;4.380;2023-08-06T07:49:47;14.70;99.90
10788;DHT22;5446;50.826;4.380;2023-08-06T07:52:13;14.70;99.90
10788;DHT22;5446;50.826;4.380;2023-08-06T07:54:38;14.80;99.90
10788;DHT22;5446;50.826;4.380;2023-08-06T07:57:04;14.80;99.90
10788;DHT22;5446;50.826;4.380;2023-08-06T07:59:30;14.90;99.90
10788;DHT22;5446;50.826;4.380;2023-08-06T08:01:56;14.90;99.90
10788;DHT22;5446;50.826;4.380;2023-08-06T08:04:22;14.80;99.90
10788;DHT22;5446;50.826;4.380;2023-08-06T08:06:49;14.80;99.90
10788;DHT22;5446;50.826;4.380;2023-08-06T08:09:15;14.90;99.90
10788;DHT22;5446;50.826;4.380;2023-08-06T08:11:41;14.90;99.90
10788;DHT22;5446;50.826;4.380;2023-08-06T08:14:07;15.10;99.90
10788;DHT22;5446;50.826;4.380;2023-08-06T08:16:33;15.20;99.90
10788;DHT22;5446;50.826;4.380;2023-08-06T08:18:59;15.20;99.90
10788;DHT22;5446;50.826;4.380;2023-08-06T08:21:25;15.20;99.90
10788;DHT22;5446;50.826;4.380;2023-08-06T08:23:51;15.10;99.90
10788;DHT22;5446;50.826;4.380;2023-08-06T08:26:17;15.10;99.90
10788;DHT22;5446;50.826;4.380;2023-08-06T08:28:42;14.90;99.90
10788;DHT22;5446;50.826;4.380;2023-08-06T08:31:09;14.80;99.90
10788;DHT22;5446;50.826;4.380;2023-08-06T08:33:35;14.70;99.90
10788;DHT22;5446;50.826;4.380;2023-08-06T08:36:01;14.70;99.90
10788;DHT22;5446;50.826;4.380;2023-08-06T08:38:26;14.60;99.90
10788;DHT22;5446;50.826;4.380;2023-08-06T08:40:54;14.60;99.90
10788;DHT22;5446;50.826;4.380;2023-08-06T08:43:23;14.60;99.90
10788;DHT22;5446;50.826;4.380;2023-08-06T08:45:53;14.60;99.90
10788;DHT22;5446;50.826;4.380;2023-08-06T08:48:24;14.70;99.90
10788;DHT22;5446;50.826;4.380;2023-08-06T08:50:52;14.70;99.90
10788;DHT22;5446;50.826;4.380;2023-08-06T08:53:18;14.80;99.90
10788;DHT22;5446;50.826;4.380;2023-08-06T08:55:48;14.90;99.90
10788;DHT22;5446;50.826;4.380;2023-08-06T08:58:15;14.80;99.90
10788;DHT22;5446;50.826;4.380;2023-08-06T09:00:42;15.00;99.90
10788;DHT22;5446;50.826;4.380;2023-08-06T09:03:08;15.00;99.90
10788;DHT22;5446;50.826;4.380;2023-08-06T09:05:34;15.00;99.90
10788;DHT22;5446;50.826;4.380;2023-08-06T09:08:04;15.00;99.90
10788;DHT22;5446;50.826;4.380;2023-08-06T09:10:30;15.10;99.90
10788;DHT22;5446;50.826;4.380;2023-08-06T09:12:57;15.00;99.90
10788;DHT22;5446;50.826;4.380;2023-08-06T09:15:27;15.00;99.90
10788;DHT22;5446;50.826;4.380;2023-08-06T09:17:53;15.10;99.90
10788;DHT22;5446;50.826;4.380;2023-08-06T09:20:19;15.00;99.90
10788;DHT22;5446;50.826;4.380;2023-08-06T09:22:45;14.80;99.90
10788;DHT22;5446;50.826;4.380;2023-08-06T09:25:21;14.90;99.90
10788;DHT22;5446;50.826;4.380;2023-08-06T09:27:50;14.80;99.90
10788;DHT22;5446;50.826;4.380;2023-08-06T09:30:32;14.80;99.90
10788;DHT22;5446;50.826;4.380;2023-08-06T09:32:58;14.60;99.90
10788;DHT22;5446;50.826;4.380;2023-08-06T09:35:24;14.60;99.90
10788;DHT22;5446;50.826;4.380;2023-08-06T09:37:50;14.50;99.90
10788;DHT22;5446;50.826;4.380;2023-08-06T09:40:31;14.40;99.90
10788;DHT22;5446;50.826;4.380;2023-08-06T09:42:58;14.30;99.90
10788;DHT22;5446;50.826;4.380;2023-08-06T09:45:35;14.40;99.90
10788;DHT22;5446;50.826;4.380;2023-08-06T09:48:06;14.30;99.90
10788;DHT22;5446;50.826;4.380;2023-08-06T09:50:34;14.30;99.90
10788;DHT22;5446;50.826;4.380;2023-08-06T09:53:02;14.20;99.90
10788;DHT22;5446;50.826;4.380;2023-08-06T09:55:28;14.30;99.90
10788;DHT22;5446;50.826;4.380;2023-08-06T09:57:55;14.30;99.90
10788;DHT22;5446;50.826;4.380;2023-08-06T10:00:22;14.30;99.90
10788;DHT22;5446;50.826;4.380;2023-08-06T10:02:49;14.30;99.90
10788;DHT22;5446;50.826;4.380;2023-08-06T10:05:18;14.40;99.90
10788;DHT22;5446;50.826;4.380;2023-08-06T10:07:44;14.40;99.90
10788;DHT22;5446;50.826;4.380;2023-08-06T10:10:11;14.40;99.90
10788;DHT22;5446;50.826;4.380;2023-08-06T10:12:44;14.50;99.90
10788;DHT22;5446;50.826;4.380;2023-08-06T10:15:15;14.60;99.90
10788;DHT22;5446;50.826;4.380;2023-08-06T10:17:43;14.70;99.90
10788;DHT22;5446;50.826;4.380;2023-08-06T10:20:11;14.70;99.90
10788;DHT22;5446;50.826;4.380;2023-08-06T10:22:43;14.60;99.90
10788;DHT22;5446;50.826;4.380;2023-08-06T10:25:10;14.70;99.90
10788;DHT22;5446;50.826;4.380;2023-08-06T10:27:41;14.70;99.90
10788;DHT22;5446;50.826;4.380;2023-08-06T10:30:27;14.80;99.90
10788;DHT22;5446;50.826;4.380;2023-08-06T10:32:57;14.70;99.90
10788;DHT22;5446;50.826;4.380;2023-08-06T10:40:32;14.30;99.90
10788;DHT22;5446;50.826;4.380;2023-08-06T10:43:02;14.20;99.90
10788;DHT22;5446;50.826;4.380;2023-08-06T10:45:29;14.20;99.90
10788;DHT22;5446;50.826;4.380;2023-08-06T10:47:56;14.00;99.90
10788;DHT22;5446;50.826;4.380;2023-08-06T10:50:26;14.00;99.90
10788;DHT22;5446;50.826;4.380;2023-08-06T10:52:52;14.10;99.90
10788;DHT22;5446;50.826;4.380;2023-08-06T10:55:28;14.10;99.90
10788;DHT22;5446;50.826;4.380;2023-08-06T10:57:55;14.40;99.90
10788;DHT22;5446;50.826;4.380;2023-08-06T11:00:24;14.60;99.90
10788;DHT22;5446;50.826;4.380;2023-08-06T11:02:52;14.60;99.90
10788;DHT22;5446;50.826;4.380;2023-08-06T11:05:18;14.70;99.90
10788;DHT22;5446;50.826;4.380;2023-08-06T11:07:44;14.80;99.90
10788;DHT22;5446;50.826;4.380;2023-08-06T11:10:12;15.00;99.90
10788;DHT22;5446;50.826;4.380;2023-08-06T11:12:38;14.90;99.90
10788;DHT22;5446;50.826;4.380;2023-08-06T11:15:04;15.00;99.90
10788;DHT22;5446;50.826;4.380;2023-08-06T11:17:31;15.00;99.90
10788;DHT22;5446;50.826;4.380;2023-08-06T11:20:02;15.00;99.90
10788;DHT22;5446;50.826;4.380;2023-08-06T11:22:28;15.00;99.90
10788;DHT22;5446;50.826;4.380;2023-08-06T11:24:54;15.10;99.90
10788;DHT22;5446;50.826;4.380;2023-08-06T11:27:20;15.10;99.90
10788;DHT22;5446;50.826;4.380;2023-08-06T11:29:46;15.10;99.90
10788;DHT22;5446;50.826;4.380;2023-08-06T11:32:11;15.20;99.90
10788;DHT22;5446;50.826;4.380;2023-08-06T11:34:38;15.20;99.90
10788;DHT22;5446;50.826;4.380;2023-08-06T11:37:04;15.10;99.90
10788;DHT22;5446;50.826;4.380;2023-08-06T11:39:38;15.00;99.90
10788;DHT22;5446;50.826;4.380;2023-08-06T11:42:07;14.80;99.90
10788;DHT22;5446;50.826;4.380;2023-08-06T11:44:37;14.50;99.90
10788;DHT22;5446;50.826;4.380;2023-08-06T11:47:05;14.30;99.90
10788;DHT22;5446;50.826;4.380;2023-08-06T11:52:23;14.50;99.90
10788;DHT22;5446;50.826;4.380;2023-08-06T11:57:34;14.30;99.90
10788;DHT22;5446;50.826;4.380;2023-08-06T12:00:13;14.30;99.90
10788;DHT22;5446;50.826;4.380;2023-08-06T12:02:43;14.30;99.90
10788;DHT22;5446;50.826;4.380;2023-08-06T12:07:48;14.30;99.90
10788;DHT22;5446;50.826;4.380;2023-08-06T12:10:14;14.30;99.90
10788;DHT22;5446;50.826;4.380;2023-08-06T12:12:40;14.30;99.90
10788;DHT22;5446;50.826;4.380;2023-08-06T12:15:07;14.30;99.90
10788;DHT22;5446;50.826;4.380;2023-08-06T12:17:34;14.40;99.90
10788;DHT22;5446;50.826;4.380;2023-08-06T12:20:00;14.60;99.90
10788;DHT22;5446;50.826;4.380;2023-08-06T12:22:26;14.90;99.90
10788;DHT22;5446;50.826;4.380;2023-08-06T12:24:52;15.00;99.90
10788;DHT22;5446;50.826;4.380;2023-08-06T12:27:18;15.00;99.90
10788;DHT22;5446;50.826;4.380;2023-08-06T12:29:45;15.00;99.90
10788;DHT22;5446;50.826;4.380;2023-08-06T12:32:12;15.00;99.90
10788;DHT22;5446;50.826;4.380;2023-08-06T12:34:39;15.20;99.90
10788;DHT22;5446;50.826;4.380;2023-08-06T12:37:05;15.30;99.90
10788;DHT22;5446;50.826;4.380;2023-08-06T12:39:31;15.30;99.90
10788;DHT22;5446;50.826;4.380;2023-08-06T12:42:07;15.30;99.90
10788;DHT22;5446;50.826;4.380;2023-08-06T12:44:33;15.20;99.90
10788;DHT22;5446;50.826;4.380;2023-08-06T12:46:59;15.00;99.90
10788;DHT22;5446;50.826;4.380;2023-08-06T12:49:25;14.90;99.90
10788;DHT22;5446;50.826;4.380;2023-08-06T12:51:52;14.90;99.90
10788;DHT22;5446;50.826;4.380;2023-08-06T12:54:19;15.00;99.90
10788;DHT22;5446;50.826;4.380;2023-08-06T12:56:46;15.10;99.90
10788;DHT22;5446;50.826;4.380;2023-08-06T12:59:13;15.20;99.90
10788;DHT22;5446;50.826;4.380;2023-08-06T13:01:39;15.20;99.90
10788;DHT22;5446;50.826;4.380;2023-08-06T13:04:05;15.30;99.90
10788;DHT22;5446;50.826;4.380;2023-08-06T13:06:30;15.40;99.90
10788;DHT22;5446;50.826;4.380;2023-08-06T13:09:01;15.20;99.90
10788;DHT22;5446;50.826;4.380;2023-08-06T13:11:27;15.30;99.90
10788;DHT22;5446;50.826;4.380;2023-08-06T13:13:53;15.30;99.90
10788;DHT22;5446;50.826;4.380;2023-08-06T13:16:18;15.30;99.90
10788;DHT22;5446;50.826;4.380;2023-08-06T13:18:44;15.40;99.90
10788;DHT22;5446;50.826;4.380;2023-08-06T13:21:10;15.20;99.90
10788;DHT22;5446;50.826;4.380;2023-08-06T13:23:36;15.20;99.90
10788;DHT22;5446;50.826;4.380;2023-08-06T13:26:01;15.20;99.90
10788;DHT22;5446;50.826;4.380;2023-08-06T13:28:27;15.10;99.90
10788;DHT22;5446;50.826;4.380;2023-08-06T13:30:53;15.00;99.90
10788;DHT22;5446;50.826;4.380;2023-08-06T13:33:18;15.00;99.90
10788;DHT22;5446;50.826;4.380;2023-08-06T13:35:44;15.00;99.90
10788;DHT22;5446;50.826;4.380;2023-08-06T13:38:10;14.90;99.90
10788;DHT22;5446;50.826;4.380;2023-08-06T13:40:36;15.00;99.90
10788;DHT22;5446;50.826;4.380;2023-08-06T13:43:03;14.80;99.90
10788;DHT22;5446;50.826;4.380;2023-08-06T13:45:29;14.70;99.90
10788;DHT22;5446;50.826;4.380;2023-08-06T13:47:56;14.60;99.90
10788;DHT22;5446;50.826;4.380;2023-08-06T13:50:22;14.50;99.90
10788;DHT22;5446;50.826;4.380;2023-08-06T13:52:51;14.50;99.90
10788;DHT22;5446;50.826;4.380;2023-08-06T13:55:18;14.50;99.90
10788;DHT22;5446;50.826;4.380;2023-08-06T13:57:44;14.50;99.90
10788;DHT22;5446;50.826;4.380;2023-08-06T14:00:10;14.40;99.90
10788;DHT22;5446;50.826;4.380;2023-08-06T14:02:36;14.50;99.90
10788;DHT22;5446;50.826;4.380;2023-08-06T14:05:02;14.50;99.90
10788;DHT22;5446;50.826;4.380;2023-08-06T14:07:27;14.50;99.90
10788;DHT22;5446;50.826;4.380;2023-08-06T14:09:53;14.50;99.90
10788;DHT22;5446;50.826;4.380;2023-08-06T14:12:19;14.50;99.90
10788;DHT22;5446;50.826;4.380;2023-08-06T14:14:44;14.70;99.90
10788;DHT22;5446;50.826;4.380;2023-08-06T14:17:10;14.70;99.90
10788;DHT22;5446;50.826;4.380;2023-08-06T14:19:36;14.70;99.90
10788;DHT22;5446;50.826;4.380;2023-08-06T14:22:02;14.70;99.90
10788;DHT22;5446;50.826;4.380;2023-08-06T14:24:27;14.70;99.90
10788;DHT22;5446;50.826;4.380;2023-08-06T14:26:53;14.70;99.90
10788;DHT22;5446;50.826;4.380;2023-08-06T14:29:19;14.70;99.90
10788;DHT22;5446;50.826;4.380;2023-08-06T14:31:45;14.60;99.90
10788;DHT22;5446;50.826;4.380;2023-08-06T14:34:10;14.50;99.90
10788;DHT22;5446;50.826;4.380;2023-08-06T14:36:36;14.50;99.90
10788;DHT22;5446;50.826;4.380;2023-08-06T14:39:02;14.50;99.90
10788;DHT22;5446;50.826;4.380;2023-08-06T14:41:27;14.60;99.90
10788;DHT22;5446;50.826;4.380;2023-08-06T14:43:53;14.60;99.90
10788;DHT22;5446;50.826;4.380;2023-08-06T14:46:19;14.60;99.90
10788;DHT22;5446;50.826;4.380;2023-08-06T14:48:45;14.60;99.90
10788;DHT22;5446;50.826;4.380;2023-08-06T14:51:11;14.60;99.90
10788;DHT22;5446;50.826;4.380;2023-08-06T14:53:37;14.70;99.90
10788;DHT22;5446;50.826;4.380;2023-08-06T14:56:02;14.70;99.90
10788;DHT22;5446;50.826;4.380;2023-08-06T14:58:28;14.80;99.90
10788;DHT22;5446;50.826;4.380;2023-08-06T15:00:54;14.90;99.90
10788;DHT22;5446;50.826;4.380;2023-08-06T15:03:19;14.90;99.90
10788;DHT22;5446;50.826;4.380;2023-08-06T15:05:49;15.00;99.90
10788;DHT22;5446;50.826;4.380;2023-08-06T15:08:15;15.10;99.90
10788;DHT22;5446;50.826;4.380;2023-08-06T15:10:41;15.20;99.90
10788;DHT22;5446;50.826;4.380;2023-08-06T15:13:07;15.20;99.90
10788;DHT22;5446;50.826;4.380;2023-08-06T15:15:32;15.40;99.90
10788;DHT22;5446;50.826;4.380;2023-08-06T15:17:58;15.30;99.90
10788;DHT22;5446;50.826;4.380;2023-08-06T15:20:24;15.30;99.90
10788;DHT22;5446;50.826;4.380;2023-08-06T15:22:50;15.50;99.90
10788;DHT22;5446;50.826;4.380;2023-08-06T15:25:16;15.50;99.90
10788;DHT22;5446;50.826;4.380;2023-08-06T15:27:42;15.40;99.90
10788;DHT22;5446;50.826;4.380;2023-08-06T15:30:08;15.40;99.90
10788;DHT22;5446;50.826;4.380;2023-08-06T15:32:34;15.30;99.90
10788;DHT22;5446;50.826;4.380;2023-08-06T15:34:59;15.00;99.90
10788;DHT22;5446;50.826;4.380;2023-08-06T15:37:25;15.00;99.90
10788;DHT22;5446;50.826;4.380;2023-08-06T15:39:52;15.30;99.90
10788;DHT22;5446;50.826;4.380;2023-08-06T15:42:18;15.40;99.90
10788;DHT22;5446;50.826;4.380;2023-08-06T15:44:44;15.60;99.90
10788;DHT22;5446;50.826;4.380;2023-08-06T15:47:10;15.80;99.90
10788;DHT22;5446;50.826;4.380;2023-08-06T15:49:38;15.90;99.90
10788;DHT22;5446;50.826;4.380;2023-08-06T15:52:04;16.20;99.90
10788;DHT22;5446;50.826;4.380;2023-08-06T15:54:29;16.40;99.90
10788;DHT22;5446;50.826;4.380;2023-08-06T15:56:55;16.60;99.90
10788;DHT22;5446;50.826;4.380;2023-08-06T15:59:29;16.70;99.90
10788;DHT22;5446;50.826;4.380;2023-08-06T16:01:55;16.50;99.90
10788;DHT22;5446;50.826;4.380;2023-08-06T16:04:25;16.20;99.90
10788;DHT22;5446;50.826;4.380;2023-08-06T16:06:51;16.20;99.90